sensor_id;sensor_type;location;lat;lon;timestamp;P1;durP1;ratioP1;P2;durP2;ratioP2
17175;SDS011;8703;48.996;9.594;2023-03-14T00:00:31;0.20;;;0.20;;
17175;SDS011;8703;48.996;9.594;2023-03-14T00:02:58;0.30;;;0.30;;
17175;SDS011;8703;48.996;9.594;2023-03-14T00:05:26;0.27;;;0.27;;
17175;SDS011;8703;48.996;9.594;2023-03-14T00:07:55;0.20;;;0.20;;
17175;SDS011;8703;48.996;9.594;2023-03-14T00:10:22;0.20;;;0.20;;
17175;SDS011;8703;48.996;9.594;2023-03-14T00:12:49;0.20;;;0.20;;
17175;SDS011;8703;48.996;9.594;2023-03-14T00:15:17;0.20;;;0.20;;
17175;SDS011;8703;48.996;9.594;2023-03-14T00:17:44;0.10;;;0.10;;
17175;SDS011;8703;48.996;9.594;2023-03-14T00:20:11;0.20;;;0.20;;
17175;SDS011;8703;48.996;9.594;2023-03-14T00:22:39;0.20;;;0.20;;
17175;SDS011;8703;48.996;9.594;2023-03-14T00:25:09;0.20;;;0.20;;
17175;SDS011;8703;48.996;9.594;2023-03-14T00:27:37;0.10;;;0.10;;
17175;SDS011;8703;48.996;9.594;2023-03-14T00:30:05;0.20;;;0.20;;
17175;SDS011;8703;48.996;9.594;2023-03-14T00:32:35;0.10;;;0.10;;
17175;SDS011;8703;48.996;9.594;2023-03-14T00:35:03;0.20;;;0.20;;
17175;SDS011;8703;48.996;9.594;2023-03-14T00:37:30;0.23;;;0.23;;
17175;SDS011;8703;48.996;9.594;2023-03-14T00:39:58;0.10;;;0.10;;
17175;SDS011;8703;48.996;9.594;2023-03-14T00:42:26;0.10;;;0.10;;
17175;SDS011;8703;48.996;9.594;2023-03-14T00:44:54;0.20;;;0.20;;
17175;SDS011;8703;48.996;9.594;2023-03-14T00:47:21;0.10;;;0.10;;
17175;SDS011;8703;48.996;9.594;2023-03-14T00:49:49;1.17;;;1.17;;
17175;SDS011;8703;48.996;9.594;2023-03-14T00:52:16;0.20;;;0.20;;
17175;SDS011;8703;48.996;9.594;2023-03-14T00:54:43;0.23;;;0.23;;
17175;SDS011;8703;48.996;9.594;2023-03-14T00:57:11;0.20;;;0.20;;
17175;SDS011;8703;48.996;9.594;2023-03-14T00:59:39;0.17;;;0.17;;
17175;SDS011;8703;48.996;9.594;2023-03-14T01:02:07;0.20;;;0.20;;
17175;SDS011;8703;48.996;9.594;2023-03-14T01:04:34;0.20;;;0.20;;
17175;SDS011;8703;48.996;9.594;2023-03-14T01:07:02;0.20;;;0.20;;
17175;SDS011;8703;48.996;9.594;2023-03-14T01:09:30;0.20;;;0.20;;
17175;SDS011;8703;48.996;9.594;2023-03-14T01:11:57;0.30;;;0.30;;
17175;SDS011;8703;48.996;9.594;2023-03-14T01:14:24;0.10;;;0.10;;
17175;SDS011;8703;48.996;9.594;2023-03-14T01:16:53;0.20;;;0.20;;
17175;SDS011;8703;48.996;9.594;2023-03-14T01:19:25;0.10;;;0.10;;
17175;SDS011;8703;48.996;9.594;2023-03-14T01:21:53;0.30;;;0.30;;
17175;SDS011;8703;48.996;9.594;2023-03-14T01:24:20;0.20;;;0.20;;
17175;SDS011;8703;48.996;9.594;2023-03-14T01:26:48;0.17;;;0.17;;
17175;SDS011;8703;48.996;9.594;2023-03-14T01:29:15;0.20;;;0.20;;
17175;SDS011;8703;48.996;9.594;2023-03-14T01:31:42;0.30;;;0.30;;
17175;SDS011;8703;48.996;9.594;2023-03-14T01:34:11;0.20;;;0.20;;
17175;SDS011;8703;48.996;9.594;2023-03-14T01:36:38;0.20;;;0.20;;
17175;SDS011;8703;48.996;9.594;2023-03-14T01:39:06;0.20;;;0.20;;
17175;SDS011;8703;48.996;9.594;2023-03-14T01:41:34;0.20;;;0.20;;
17175;SDS011;8703;48.996;9.594;2023-03-14T01:44:01;0.20;;;0.20;;
17175;SDS011;8703;48.996;9.594;2023-03-14T01:46:34;0.20;;;0.20;;
17175;SDS011;8703;48.996;9.594;2023-03-14T01:49:04;0.20;;;0.20;;
17175;SDS011;8703;48.996;9.594;2023-03-14T01:51:36;0.20;;;0.20;;
17175;SDS011;8703;48.996;9.594;2023-03-14T01:54:07;0.10;;;0.10;;
17175;SDS011;8703;48.996;9.594;2023-03-14T01:56:40;0.23;;;0.23;;
17175;SDS011;8703;48.996;9.594;2023-03-14T01:59:08;0.20;;;0.20;;
17175;SDS011;8703;48.996;9.594;2023-03-14T02:01:37;0.20;;;0.20;;
17175;SDS011;8703;48.996;9.594;2023-03-14T02:04:06;0.20;;;0.20;;
17175;SDS011;8703;48.996;9.594;2023-03-14T02:06:37;0.10;;;0.10;;
17175;SDS011;8703;48.996;9.594;2023-03-14T02:09:10;0.17;;;0.17;;
17175;SDS011;8703;48.996;9.594;2023-03-14T02:11:37;0.20;;;0.20;;
17175;SDS011;8703;48.996;9.594;2023-03-14T02:14:05;0.20;;;0.20;;
17175;SDS011;8703;48.996;9.594;2023-03-14T02:16:33;0.10;;;0.10;;
17175;SDS011;8703;48.996;9.594;2023-03-14T02:19:01;0.17;;;0.17;;
17175;SDS011;8703;48.996;9.594;2023-03-14T02:21:32;0.20;;;0.20;;
17175;SDS011;8703;48.996;9.594;2023-03-14T02:24:09;0.20;;;0.20;;
17175;SDS011;8703;48.996;9.594;2023-03-14T02:26:41;0.17;;;0.17;;
17175;SDS011;8703;48.996;9.594;2023-03-14T02:29:26;0.10;;;0.10;;
17175;SDS011;8703;48.996;9.594;2023-03-14T02:31:54;0.10;;;0.10;;
17175;SDS011;8703;48.996;9.594;2023-03-14T02:34:22;0.20;;;0.20;;
17175;SDS011;8703;48.996;9.594;2023-03-14T02:36:49;0.20;;;0.20;;
17175;SDS011;8703;48.996;9.594;2023-03-14T02:39:19;0.20;;;0.20;;
17175;SDS011;8703;48.996;9.594;2023-03-14T02:41:49;0.20;;;0.20;;
17175;SDS011;8703;48.996;9.594;2023-03-14T02:44:18;0.10;;;0.10;;
17175;SDS011;8703;48.996;9.594;2023-03-14T02:46:45;0.30;;;0.30;;
17175;SDS011;8703;48.996;9.594;2023-03-14T02:49:13;0.10;;;0.10;;
17175;SDS011;8703;48.996;9.594;2023-03-14T02:51:41;0.20;;;0.20;;
17175;SDS011;8703;48.996;9.594;2023-03-14T02:54:10;0.10;;;0.10;;
17175;SDS011;8703;48.996;9.594;2023-03-14T02:56:37;0.10;;;0.10;;
17175;SDS011;8703;48.996;9.594;2023-03-14T02:59:05;0.20;;;0.20;;
17175;SDS011;8703;48.996;9.594;2023-03-14T03:01:34;0.10;;;0.10;;
17175;SDS011;8703;48.996;9.594;2023-03-14T03:04:01;0.20;;;0.20;;
17175;SDS011;8703;48.996;9.594;2023-03-14T03:06:29;0.10;;;0.10;;
17175;SDS011;8703;48.996;9.594;2023-03-14T03:08:56;0.20;;;0.20;;
17175;SDS011;8703;48.996;9.594;2023-03-14T03:11:24;0.20;;;0.20;;
17175;SDS011;8703;48.996;9.594;2023-03-14T03:13:51;0.20;;;0.20;;
17175;SDS011;8703;48.996;9.594;2023-03-14T03:16:18;0.20;;;0.20;;
17175;SDS011;8703;48.996;9.594;2023-03-14T03:18:47;0.20;;;0.20;;
17175;SDS011;8703;48.996;9.594;2023-03-14T03:21:14;0.20;;;0.20;;
17175;SDS011;8703;48.996;9.594;2023-03-14T03:23:42;0.20;;;0.20;;
17175;SDS011;8703;48.996;9.594;2023-03-14T03:26:10;0.20;;;0.20;;
17175;SDS011;8703;48.996;9.594;2023-03-14T03:28:37;0.20;;;0.20;;
17175;SDS011;8703;48.996;9.594;2023-03-14T03:31:08;0.20;;;0.20;;
17175;SDS011;8703;48.996;9.594;2023-03-14T03:33:35;0.20;;;0.20;;
17175;SDS011;8703;48.996;9.594;2023-03-14T03:36:05;0.20;;;0.20;;
17175;SDS011;8703;48.996;9.594;2023-03-14T03:38:33;0.20;;;0.20;;
17175;SDS011;8703;48.996;9.594;2023-03-14T03:41:01;0.20;;;0.20;;
17175;SDS011;8703;48.996;9.594;2023-03-14T03:43:30;0.10;;;0.10;;
17175;SDS011;8703;48.996;9.594;2023-03-14T03:45:57;0.20;;;0.20;;
17175;SDS011;8703;48.996;9.594;2023-03-14T03:48:28;0.20;;;0.20;;
17175;SDS011;8703;48.996;9.594;2023-03-14T03:50:55;0.20;;;0.20;;
17175;SDS011;8703;48.996;9.594;2023-03-14T03:53:24;0.20;;;0.20;;
17175;SDS011;8703;48.996;9.594;2023-03-14T03:55:51;0.30;;;0.30;;
17175;SDS011;8703;48.996;9.594;2023-03-14T03:58:19;0.20;;;0.20;;
17175;SDS011;8703;48.996;9.594;2023-03-14T04:00:46;0.20;;;0.20;;
17175;SDS011;8703;48.996;9.594;2023-03-14T04:03:13;0.20;;;0.20;;
17175;SDS011;8703;48.996;9.594;2023-03-14T04:05:41;0.20;;;0.20;;
17175;SDS011;8703;48.996;9.594;2023-03-14T04:08:08;0.20;;;0.20;;
17175;SDS011;8703;48.996;9.594;2023-03-14T04:10:37;0.10;;;0.10;;
17175;SDS011;8703;48.996;9.594;2023-03-14T04:13:04;0.10;;;0.10;;
17175;SDS011;8703;48.996;9.594;2023-03-14T04:15:31;0.20;;;0.20;;
17175;SDS011;8703;48.996;9.594;2023-03-14T04:17:59;0.10;;;0.10;;
17175;SDS011;8703;48.996;9.594;2023-03-14T04:20:26;0.20;;;0.20;;
17175;SDS011;8703;48.996;9.594;2023-03-14T04:22:53;0.20;;;0.20;;
17175;SDS011;8703;48.996;9.594;2023-03-14T04:25:20;0.20;;;0.20;;
17175;SDS011;8703;48.996;9.594;2023-03-14T04:27:49;0.23;;;0.23;;
17175;SDS011;8703;48.996;9.594;2023-03-14T04:30:16;0.20;;;0.20;;
17175;SDS011;8703;48.996;9.594;2023-03-14T04:32:44;0.10;;;0.10;;
17175;SDS011;8703;48.996;9.594;2023-03-14T04:35:11;0.10;;;0.10;;
17175;SDS011;8703;48.996;9.594;2023-03-14T04:37:39;0.20;;;0.20;;
17175;SDS011;8703;48.996;9.594;2023-03-14T04:40:08;0.10;;;0.10;;
17175;SDS011;8703;48.996;9.594;2023-03-14T04:42:36;0.20;;;0.20;;
17175;SDS011;8703;48.996;9.594;2023-03-14T04:45:06;0.30;;;0.30;;
17175;SDS011;8703;48.996;9.594;2023-03-14T04:47:34;0.20;;;0.20;;
17175;SDS011;8703;48.996;9.594;2023-03-14T04:50:01;0.10;;;0.10;;
17175;SDS011;8703;48.996;9.594;2023-03-14T04:52:29;0.20;;;0.20;;
17175;SDS011;8703;48.996;9.594;2023-03-14T04:54:56;0.30;;;0.30;;
17175;SDS011;8703;48.996;9.594;2023-03-14T04:57:23;0.20;;;0.20;;
17175;SDS011;8703;48.996;9.594;2023-03-14T04:59:51;0.13;;;0.13;;
17175;SDS011;8703;48.996;9.594;2023-03-14T05:02:19;0.10;;;0.10;;
17175;SDS011;8703;48.996;9.594;2023-03-14T05:04:47;0.10;;;0.10;;
17175;SDS011;8703;48.996;9.594;2023-03-14T05:07:14;0.20;;;0.20;;
17175;SDS011;8703;48.996;9.594;2023-03-14T05:09:42;0.20;;;0.20;;
17175;SDS011;8703;48.996;9.594;2023-03-14T05:12:09;0.20;;;0.20;;
17175;SDS011;8703;48.996;9.594;2023-03-14T05:14:36;0.20;;;0.20;;
17175;SDS011;8703;48.996;9.594;2023-03-14T05:17:04;0.20;;;0.20;;
17175;SDS011;8703;48.996;9.594;2023-03-14T05:19:33;0.10;;;0.10;;
17175;SDS011;8703;48.996;9.594;2023-03-14T05:22:01;0.20;;;0.20;;
17175;SDS011;8703;48.996;9.594;2023-03-14T05:24:28;0.20;;;0.20;;
17175;SDS011;8703;48.996;9.594;2023-03-14T05:26:56;0.20;;;0.20;;
17175;SDS011;8703;48.996;9.594;2023-03-14T05:29:23;0.20;;;0.20;;
17175;SDS011;8703;48.996;9.594;2023-03-14T05:31:50;0.20;;;0.20;;
17175;SDS011;8703;48.996;9.594;2023-03-14T05:34:18;0.20;;;0.20;;
17175;SDS011;8703;48.996;9.594;2023-03-14T05:36:46;0.10;;;0.10;;
17175;SDS011;8703;48.996;9.594;2023-03-14T05:39:14;0.20;;;0.20;;
17175;SDS011;8703;48.996;9.594;2023-03-14T05:41:41;0.20;;;0.20;;
17175;SDS011;8703;48.996;9.594;2023-03-14T05:44:08;0.50;;;0.50;;
17175;SDS011;8703;48.996;9.594;2023-03-14T05:46:36;0.20;;;0.20;;
17175;SDS011;8703;48.996;9.594;2023-03-14T05:49:03;0.10;;;0.10;;
17175;SDS011;8703;48.996;9.594;2023-03-14T05:51:30;0.20;;;0.20;;
17175;SDS011;8703;48.996;9.594;2023-03-14T05:53:59;0.27;;;0.27;;
17175;SDS011;8703;48.996;9.594;2023-03-14T05:56:26;0.20;;;0.20;;
17175;SDS011;8703;48.996;9.594;2023-03-14T05:58:54;0.20;;;0.20;;
17175;SDS011;8703;48.996;9.594;2023-03-14T06:01:21;1.20;;;1.20;;
17175;SDS011;8703;48.996;9.594;2023-03-14T06:03:48;0.20;;;0.20;;
17175;SDS011;8703;48.996;9.594;2023-03-14T06:06:15;0.20;;;0.20;;
17175;SDS011;8703;48.996;9.594;2023-03-14T06:08:43;5.03;;;0.80;;
17175;SDS011;8703;48.996;9.594;2023-03-14T06:11:11;2.33;;;0.60;;
17175;SDS011;8703;48.996;9.594;2023-03-14T06:13:39;3.83;;;0.83;;
17175;SDS011;8703;48.996;9.594;2023-03-14T06:16:06;3.40;;;1.53;;
17175;SDS011;8703;48.996;9.594;2023-03-14T06:18:34;2.33;;;1.13;;
17175;SDS011;8703;48.996;9.594;2023-03-14T06:21:02;2.70;;;0.80;;
17175;SDS011;8703;48.996;9.594;2023-03-14T06:23:29;3.40;;;0.90;;
17175;SDS011;8703;48.996;9.594;2023-03-14T06:25:56;3.27;;;0.90;;
17175;SDS011;8703;48.996;9.594;2023-03-14T06:28:25;2.13;;;1.17;;
17175;SDS011;8703;48.996;9.594;2023-03-14T06:30:52;2.50;;;0.80;;
17175;SDS011;8703;48.996;9.594;2023-03-14T06:33:20;2.57;;;0.80;;
17175;SDS011;8703;48.996;9.594;2023-03-14T06:35:47;3.30;;;1.00;;
17175;SDS011;8703;48.996;9.594;2023-03-14T06:38:14;3.97;;;1.20;;
17175;SDS011;8703;48.996;9.594;2023-03-14T06:40:42;2.80;;;0.93;;
17175;SDS011;8703;48.996;9.594;2023-03-14T06:43:09;2.20;;;0.80;;
17175;SDS011;8703;48.996;9.594;2023-03-14T06:45:38;3.73;;;0.80;;
17175;SDS011;8703;48.996;9.594;2023-03-14T06:48:05;4.23;;;0.90;;
17175;SDS011;8703;48.996;9.594;2023-03-14T06:50:33;2.83;;;0.90;;
17175;SDS011;8703;48.996;9.594;2023-03-14T06:53:00;2.40;;;0.70;;
17175;SDS011;8703;48.996;9.594;2023-03-14T06:55:27;2.33;;;0.67;;
17175;SDS011;8703;48.996;9.594;2023-03-14T06:57:55;2.17;;;0.60;;
17175;SDS011;8703;48.996;9.594;2023-03-14T07:00:22;7.57;;;1.80;;
17175;SDS011;8703;48.996;9.594;2023-03-14T07:02:51;5.77;;;0.90;;
17175;SDS011;8703;48.996;9.594;2023-03-14T07:05:18;3.03;;;1.13;;
17175;SDS011;8703;48.996;9.594;2023-03-14T07:07:46;2.27;;;0.90;;
17175;SDS011;8703;48.996;9.594;2023-03-14T07:10:13;2.23;;;1.00;;
17175;SDS011;8703;48.996;9.594;2023-03-14T07:12:40;3.93;;;0.87;;
17175;SDS011;8703;48.996;9.594;2023-03-14T07:15:08;3.93;;;1.10;;
17175;SDS011;8703;48.996;9.594;2023-03-14T07:17:36;1.90;;;0.90;;
17175;SDS011;8703;48.996;9.594;2023-03-14T07:20:05;4.00;;;1.00;;
17175;SDS011;8703;48.996;9.594;2023-03-14T07:22:34;4.30;;;1.00;;
17175;SDS011;8703;48.996;9.594;2023-03-14T07:25:01;3.13;;;0.70;;
17175;SDS011;8703;48.996;9.594;2023-03-14T07:27:29;3.53;;;0.90;;
17175;SDS011;8703;48.996;9.594;2023-03-14T07:29:56;4.37;;;0.83;;
17175;SDS011;8703;48.996;9.594;2023-03-14T07:32:23;1.50;;;0.60;;
17175;SDS011;8703;48.996;9.594;2023-03-14T07:34:51;2.27;;;0.60;;
17175;SDS011;8703;48.996;9.594;2023-03-14T07:37:20;4.17;;;0.80;;
17175;SDS011;8703;48.996;9.594;2023-03-14T07:39:47;2.37;;;0.57;;
17175;SDS011;8703;48.996;9.594;2023-03-14T07:42:14;3.33;;;0.70;;
17175;SDS011;8703;48.996;9.594;2023-03-14T07:44:42;2.10;;;0.50;;
17175;SDS011;8703;48.996;9.594;2023-03-14T07:47:09;3.07;;;0.80;;
17175;SDS011;8703;48.996;9.594;2023-03-14T07:49:36;4.70;;;0.60;;
17175;SDS011;8703;48.996;9.594;2023-03-14T07:52:04;4.13;;;0.80;;
17175;SDS011;8703;48.996;9.594;2023-03-14T07:54:33;1.63;;;0.50;;
17175;SDS011;8703;48.996;9.594;2023-03-14T07:57:00;1.57;;;0.70;;
17175;SDS011;8703;48.996;9.594;2023-03-14T07:59:28;4.23;;;0.93;;
17175;SDS011;8703;48.996;9.594;2023-03-14T08:01:56;1.60;;;0.60;;
17175;SDS011;8703;48.996;9.594;2023-03-14T08:04:23;4.27;;;0.70;;
17175;SDS011;8703;48.996;9.594;2023-03-14T08:06:52;2.20;;;0.70;;
17175;SDS011;8703;48.996;9.594;2023-03-14T08:09:19;1.33;;;0.60;;
17175;SDS011;8703;48.996;9.594;2023-03-14T08:11:48;1.80;;;0.57;;
17175;SDS011;8703;48.996;9.594;2023-03-14T08:14:15;3.73;;;0.70;;
17175;SDS011;8703;48.996;9.594;2023-03-14T08:16:42;3.87;;;0.90;;
17175;SDS011;8703;48.996;9.594;2023-03-14T08:19:10;4.00;;;1.10;;
17175;SDS011;8703;48.996;9.594;2023-03-14T08:21:37;4.43;;;2.23;;
17175;SDS011;8703;48.996;9.594;2023-03-14T08:24:05;4.30;;;1.20;;
17175;SDS011;8703;48.996;9.594;2023-03-14T08:26:32;1.40;;;0.77;;
17175;SDS011;8703;48.996;9.594;2023-03-14T08:29:01;2.80;;;0.70;;
17175;SDS011;8703;48.996;9.594;2023-03-14T08:31:29;5.20;;;0.80;;
17175;SDS011;8703;48.996;9.594;2023-03-14T08:33:57;2.07;;;0.70;;
17175;SDS011;8703;48.996;9.594;2023-03-14T08:36:25;2.23;;;0.53;;
17175;SDS011;8703;48.996;9.594;2023-03-14T08:38:52;5.40;;;0.90;;
17175;SDS011;8703;48.996;9.594;2023-03-14T08:41:20;3.03;;;0.80;;
17175;SDS011;8703;48.996;9.594;2023-03-14T08:43:47;5.10;;;0.80;;
17175;SDS011;8703;48.996;9.594;2023-03-14T08:46:16;1.40;;;0.60;;
17175;SDS011;8703;48.996;9.594;2023-03-14T08:48:43;3.40;;;0.60;;
17175;SDS011;8703;48.996;9.594;2023-03-14T08:51:11;1.50;;;0.70;;
17175;SDS011;8703;48.996;9.594;2023-03-14T08:53:40;3.50;;;0.70;;
17175;SDS011;8703;48.996;9.594;2023-03-14T08:56:08;2.10;;;0.50;;
17175;SDS011;8703;48.996;9.594;2023-03-14T08:58:35;2.67;;;0.60;;
17175;SDS011;8703;48.996;9.594;2023-03-14T09:01:03;4.27;;;0.80;;
17175;SDS011;8703;48.996;9.594;2023-03-14T09:03:32;4.70;;;0.60;;
17175;SDS011;8703;48.996;9.594;2023-03-14T09:06:03;2.83;;;0.53;;
17175;SDS011;8703;48.996;9.594;2023-03-14T09:08:31;1.47;;;0.50;;
17175;SDS011;8703;48.996;9.594;2023-03-14T09:10:59;0.90;;;0.40;;
17175;SDS011;8703;48.996;9.594;2023-03-14T09:13:26;0.80;;;0.50;;
17175;SDS011;8703;48.996;9.594;2023-03-14T09:15:54;6.10;;;0.73;;
17175;SDS011;8703;48.996;9.594;2023-03-14T09:18:22;2.20;;;0.43;;
17175;SDS011;8703;48.996;9.594;2023-03-14T09:20:50;1.17;;;0.50;;
17175;SDS011;8703;48.996;9.594;2023-03-14T09:23:18;3.07;;;0.60;;
17175;SDS011;8703;48.996;9.594;2023-03-14T09:25:45;1.97;;;0.40;;
17175;SDS011;8703;48.996;9.594;2023-03-14T09:28:12;2.50;;;0.60;;
17175;SDS011;8703;48.996;9.594;2023-03-14T09:30:40;1.50;;;0.53;;
17175;SDS011;8703;48.996;9.594;2023-03-14T09:33:08;2.07;;;0.50;;
17175;SDS011;8703;48.996;9.594;2023-03-14T09:35:35;1.43;;;0.30;;
17175;SDS011;8703;48.996;9.594;2023-03-14T09:38:04;0.70;;;0.40;;
17175;SDS011;8703;48.996;9.594;2023-03-14T09:40:32;1.10;;;0.40;;
17175;SDS011;8703;48.996;9.594;2023-03-14T09:43:02;0.77;;;0.30;;
17175;SDS011;8703;48.996;9.594;2023-03-14T09:45:31;0.53;;;0.37;;
17175;SDS011;8703;48.996;9.594;2023-03-14T09:48:01;3.90;;;0.50;;
17175;SDS011;8703;48.996;9.594;2023-03-14T09:50:31;0.80;;;0.40;;
17175;SDS011;8703;48.996;9.594;2023-03-14T09:53:04;4.93;;;1.00;;
17175;SDS011;8703;48.996;9.594;2023-03-14T09:55:35;6.23;;;0.60;;
17175;SDS011;8703;48.996;9.594;2023-03-14T09:58:04;2.43;;;0.40;;
17175;SDS011;8703;48.996;9.594;2023-03-14T10:00:36;2.17;;;0.50;;
17175;SDS011;8703;48.996;9.594;2023-03-14T10:03:09;2.90;;;0.87;;
17175;SDS011;8703;48.996;9.594;2023-03-14T10:05:48;0.93;;;0.40;;
17175;SDS011;8703;48.996;9.594;2023-03-14T10:08:17;0.70;;;0.60;;
17175;SDS011;8703;48.996;9.594;2023-03-14T10:10:44;0.93;;;0.40;;
17175;SDS011;8703;48.996;9.594;2023-03-14T10:13:14;0.63;;;0.30;;
17175;SDS011;8703;48.996;9.594;2023-03-14T10:15:46;1.37;;;0.50;;
17175;SDS011;8703;48.996;9.594;2023-03-14T10:18:16;0.93;;;0.40;;
17175;SDS011;8703;48.996;9.594;2023-03-14T10:20:44;3.50;;;0.30;;
17175;SDS011;8703;48.996;9.594;2023-03-14T10:23:22;0.80;;;0.40;;
17175;SDS011;8703;48.996;9.594;2023-03-14T10:25:58;3.30;;;0.50;;
17175;SDS011;8703;48.996;9.594;2023-03-14T10:28:31;1.40;;;0.60;;
17175;SDS011;8703;48.996;9.594;2023-03-14T10:30:59;1.27;;;0.33;;
17175;SDS011;8703;48.996;9.594;2023-03-14T10:33:28;1.50;;;0.60;;
17175;SDS011;8703;48.996;9.594;2023-03-14T10:35:57;2.00;;;0.50;;
17175;SDS011;8703;48.996;9.594;2023-03-14T10:38:27;0.50;;;0.40;;
17175;SDS011;8703;48.996;9.594;2023-03-14T10:40:55;1.27;;;0.40;;
17175;SDS011;8703;48.996;9.594;2023-03-14T10:43:23;0.40;;;0.30;;
17175;SDS011;8703;48.996;9.594;2023-03-14T10:45:52;1.77;;;0.30;;
17175;SDS011;8703;48.996;9.594;2023-03-14T10:48:24;1.03;;;0.30;;
17175;SDS011;8703;48.996;9.594;2023-03-14T10:50:56;1.70;;;0.40;;
17175;SDS011;8703;48.996;9.594;2023-03-14T10:53:33;0.70;;;0.43;;
17175;SDS011;8703;48.996;9.594;2023-03-14T10:56:09;1.47;;;0.30;;
17175;SDS011;8703;48.996;9.594;2023-03-14T10:58:40;1.17;;;0.40;;
17175;SDS011;8703;48.996;9.594;2023-03-14T11:01:13;0.60;;;0.40;;
17175;SDS011;8703;48.996;9.594;2023-03-14T11:03:54;0.40;;;0.40;;
17175;SDS011;8703;48.996;9.594;2023-03-14T11:06:25;0.67;;;0.33;;
17175;SDS011;8703;48.996;9.594;2023-03-14T11:09:01;0.60;;;0.50;;
17175;SDS011;8703;48.996;9.594;2023-03-14T11:11:31;2.63;;;0.40;;
17175;SDS011;8703;48.996;9.594;2023-03-14T11:14:01;1.63;;;0.40;;
17175;SDS011;8703;48.996;9.594;2023-03-14T11:16:34;0.77;;;0.30;;
17175;SDS011;8703;48.996;9.594;2023-03-14T11:19:14;2.70;;;0.67;;
17175;SDS011;8703;48.996;9.594;2023-03-14T11:22:14;0.23;;;0.20;;
17175;SDS011;8703;48.996;9.594;2023-03-14T11:24:51;1.00;;;0.40;;
17175;SDS011;8703;48.996;9.594;2023-03-14T11:27:33;2.00;;;0.47;;
17175;SDS011;8703;48.996;9.594;2023-03-14T11:30:13;0.47;;;0.30;;
17175;SDS011;8703;48.996;9.594;2023-03-14T11:32:46;0.63;;;0.30;;
17175;SDS011;8703;48.996;9.594;2023-03-14T11:35:18;0.83;;;0.30;;
17175;SDS011;8703;48.996;9.594;2023-03-14T11:37:51;3.20;;;0.30;;
17175;SDS011;8703;48.996;9.594;2023-03-14T11:40:22;1.47;;;0.27;;
17175;SDS011;8703;48.996;9.594;2023-03-14T11:42:54;1.33;;;0.50;;
17175;SDS011;8703;48.996;9.594;2023-03-14T11:45:27;0.43;;;0.30;;
17175;SDS011;8703;48.996;9.594;2023-03-14T11:48:01;0.30;;;0.20;;
17175;SDS011;8703;48.996;9.594;2023-03-14T11:50:33;0.40;;;0.20;;
17175;SDS011;8703;48.996;9.594;2023-03-14T11:53:03;0.40;;;0.40;;
17175;SDS011;8703;48.996;9.594;2023-03-14T11:55:34;0.90;;;0.40;;
17175;SDS011;8703;48.996;9.594;2023-03-14T11:58:03;2.20;;;0.50;;
17175;SDS011;8703;48.996;9.594;2023-03-14T12:00:37;1.03;;;0.30;;
17175;SDS011;8703;48.996;9.594;2023-03-14T12:03:09;0.30;;;0.30;;
17175;SDS011;8703;48.996;9.594;2023-03-14T12:05:40;2.10;;;0.33;;
17175;SDS011;8703;48.996;9.594;2023-03-14T12:11:06;1.23;;;0.30;;
17175;SDS011;8703;48.996;9.594;2023-03-14T12:13:38;1.23;;;0.30;;
17175;SDS011;8703;48.996;9.594;2023-03-14T12:16:06;3.57;;;0.50;;
17175;SDS011;8703;48.996;9.594;2023-03-14T12:18:44;2.93;;;0.40;;
17175;SDS011;8703;48.996;9.594;2023-03-14T12:21:12;0.63;;;0.33;;
17175;SDS011;8703;48.996;9.594;2023-03-14T12:23:41;2.70;;;0.90;;
17175;SDS011;8703;48.996;9.594;2023-03-14T12:26:15;0.73;;;0.40;;
17175;SDS011;8703;48.996;9.594;2023-03-14T12:28:44;1.37;;;0.30;;
17175;SDS011;8703;48.996;9.594;2023-03-14T12:34:04;0.30;;;0.30;;
17175;SDS011;8703;48.996;9.594;2023-03-14T12:36:54;0.83;;;0.30;;
17175;SDS011;8703;48.996;9.594;2023-03-14T12:39:31;0.83;;;0.50;;
17175;SDS011;8703;48.996;9.594;2023-03-14T12:42:03;0.30;;;0.30;;
17175;SDS011;8703;48.996;9.594;2023-03-14T12:44:40;1.80;;;0.70;;
17175;SDS011;8703;48.996;9.594;2023-03-14T12:50:21;1.50;;;0.70;;
17175;SDS011;8703;48.996;9.594;2023-03-14T12:53:00;1.03;;;0.33;;
17175;SDS011;8703;48.996;9.594;2023-03-14T12:56:01;0.37;;;0.33;;
17175;SDS011;8703;48.996;9.594;2023-03-14T12:58:39;0.40;;;0.40;;
17175;SDS011;8703;48.996;9.594;2023-03-14T13:01:14;0.87;;;0.70;;
17175;SDS011;8703;48.996;9.594;2023-03-14T13:03:43;1.47;;;0.63;;
17175;SDS011;8703;48.996;9.594;2023-03-14T13:06:12;1.60;;;0.97;;
17175;SDS011;8703;48.996;9.594;2023-03-14T13:08:42;1.70;;;1.20;;
17175;SDS011;8703;48.996;9.594;2023-03-14T13:11:10;3.57;;;1.20;;
17175;SDS011;8703;48.996;9.594;2023-03-14T13:13:44;2.47;;;1.20;;
17175;SDS011;8703;48.996;9.594;2023-03-14T13:16:15;1.13;;;0.80;;
17175;SDS011;8703;48.996;9.594;2023-03-14T13:18:44;1.33;;;1.00;;
17175;SDS011;8703;48.996;9.594;2023-03-14T13:21:13;3.87;;;1.20;;
17175;SDS011;8703;48.996;9.594;2023-03-14T13:23:54;2.87;;;1.00;;
17175;SDS011;8703;48.996;9.594;2023-03-14T13:26:23;4.17;;;1.30;;
17175;SDS011;8703;48.996;9.594;2023-03-14T13:28:53;1.53;;;1.10;;
17175;SDS011;8703;48.996;9.594;2023-03-14T13:31:22;2.80;;;1.10;;
17175;SDS011;8703;48.996;9.594;2023-03-14T13:33:56;2.50;;;0.93;;
17175;SDS011;8703;48.996;9.594;2023-03-14T13:36:25;2.60;;;0.80;;
17175;SDS011;8703;48.996;9.594;2023-03-14T13:38:56;3.27;;;0.80;;
17175;SDS011;8703;48.996;9.594;2023-03-14T13:41:24;2.50;;;0.80;;
17175;SDS011;8703;48.996;9.594;2023-03-14T13:43:53;1.67;;;0.70;;
17175;SDS011;8703;48.996;9.594;2023-03-14T13:46:27;2.37;;;0.90;;
17175;SDS011;8703;48.996;9.594;2023-03-14T13:48:55;1.47;;;0.77;;
17175;SDS011;8703;48.996;9.594;2023-03-14T13:51:24;5.60;;;0.90;;
17175;SDS011;8703;48.996;9.594;2023-03-14T13:53:55;1.73;;;0.80;;
17175;SDS011;8703;48.996;9.594;2023-03-14T13:56:23;1.57;;;0.60;;
17175;SDS011;8703;48.996;9.594;2023-03-14T13:58:53;1.13;;;0.40;;
17175;SDS011;8703;48.996;9.594;2023-03-14T14:01:22;0.83;;;0.40;;
17175;SDS011;8703;48.996;9.594;2023-03-14T14:03:50;2.93;;;0.57;;
17175;SDS011;8703;48.996;9.594;2023-03-14T14:06:22;2.20;;;0.60;;
17175;SDS011;8703;48.996;9.594;2023-03-14T14:08:55;1.90;;;0.50;;
17175;SDS011;8703;48.996;9.594;2023-03-14T14:11:28;1.13;;;0.50;;
17175;SDS011;8703;48.996;9.594;2023-03-14T14:14:05;1.07;;;0.47;;
17175;SDS011;8703;48.996;9.594;2023-03-14T14:16:34;3.57;;;0.80;;
17175;SDS011;8703;48.996;9.594;2023-03-14T14:19:02;1.53;;;0.60;;
17175;SDS011;8703;48.996;9.594;2023-03-14T14:21:29;1.43;;;0.50;;
17175;SDS011;8703;48.996;9.594;2023-03-14T14:23:57;1.13;;;0.47;;
17175;SDS011;8703;48.996;9.594;2023-03-14T14:26:25;0.67;;;0.30;;
17175;SDS011;8703;48.996;9.594;2023-03-14T14:29:00;1.40;;;0.60;;
17175;SDS011;8703;48.996;9.594;2023-03-14T14:31:30;0.93;;;0.50;;
17175;SDS011;8703;48.996;9.594;2023-03-14T14:33:58;0.50;;;0.40;;
17175;SDS011;8703;48.996;9.594;2023-03-14T14:36:27;2.60;;;0.40;;
17175;SDS011;8703;48.996;9.594;2023-03-14T14:38:59;1.70;;;0.30;;
17175;SDS011;8703;48.996;9.594;2023-03-14T14:41:30;1.80;;;0.50;;
17175;SDS011;8703;48.996;9.594;2023-03-14T14:43:58;2.00;;;0.40;;
17175;SDS011;8703;48.996;9.594;2023-03-14T14:46:27;1.30;;;0.60;;
17175;SDS011;8703;48.996;9.594;2023-03-14T14:48:58;1.07;;;0.50;;
17175;SDS011;8703;48.996;9.594;2023-03-14T14:51:33;0.97;;;0.50;;
17175;SDS011;8703;48.996;9.594;2023-03-14T14:54:09;0.70;;;0.40;;
17175;SDS011;8703;48.996;9.594;2023-03-14T14:56:38;0.93;;;0.50;;
17175;SDS011;8703;48.996;9.594;2023-03-14T14:59:17;4.50;;;0.77;;
17175;SDS011;8703;48.996;9.594;2023-03-14T15:01:54;2.00;;;0.60;;
17175;SDS011;8703;48.996;9.594;2023-03-14T15:04:22;1.93;;;0.63;;
17175;SDS011;8703;48.996;9.594;2023-03-14T15:06:49;0.70;;;0.50;;
17175;SDS011;8703;48.996;9.594;2023-03-14T15:09:17;0.90;;;0.60;;
17175;SDS011;8703;48.996;9.594;2023-03-14T15:11:45;2.57;;;0.60;;
17175;SDS011;8703;48.996;9.594;2023-03-14T15:14:13;2.43;;;0.70;;
17175;SDS011;8703;48.996;9.594;2023-03-14T15:16:41;1.47;;;0.50;;
17175;SDS011;8703;48.996;9.594;2023-03-14T15:19:11;1.40;;;0.50;;
17175;SDS011;8703;48.996;9.594;2023-03-14T15:21:41;4.43;;;0.50;;